^^

Nearby METAR Reports

 

LIRH - Frosinone (it-Af, Italy
Distance from station: SO 5km
Dati ricevuti: 29/07/2021 19:55
Non Attivo
Sereno
Sereno
 Vento da SSE
Vento: SSE 13 km/h
Temperatura: 30°C
Indice di Calore: 31°C
P.to Rugiada: 17°C
Umidità: 46%
Barometro: 1012 hPa
Summary: Sereno
Visibility: greater than 10 km
2021/07/29 17:55 LIRH 291755Z 16007KT CAVOK 30/17 Q1012
LIRL - Latina (it-Afb), Italy
Distance from station: OSO 40km
Dati ricevuti: 29/07/2021 19:55
Non Attivo
Sereno
Sereno
 Vento da S
Vento: S 9 km/h
Temperatura: 29°C
Indice di Calore: 36°C
P.to Rugiada: 26°C
Umidità: 84%
Barometro: 1012 hPa
Summary: Sereno
Visibility: greater than 10 km
2021/07/29 17:55 LIRL 291755Z 19005KT CAVOK 29/26 Q1012
 
LIRG - Guidonia (it-Afb, Italy
Distance from station: NO 63km
Dati ricevuti: 29/07/2021 19:55
Non Attivo
Sereno
Sereno
 Vento da OSO
Vento: OSO 13 km/h
Temperatura: 31°C
Indice di Calore: 33°C
P.to Rugiada: 19°C
Umidità: 49%
Barometro: 1013 hPa
Summary: Sereno
Visibility: greater than 10 km
2021/07/29 17:55 LIRG 291755Z 24007KT CAVOK 31/19 Q1013
LIRA - Ciampino(It-Afb/, Italy
Distance from station: ONO 64km
Dati ricevuti: 30/07/2021 06:50
Sereno
Sereno
 Vento da calm
Vento: Calma
Temperatura: 22°C
P.to Rugiada: 19°C
Umidità: 83%
Barometro: 1013 hPa
Summary: Sereno
Visibility: greater than 10 km
2021/07/30 04:50 LIRA 300450Z 00000KT CAVOK 22/19 Q1013
 
LIRU - Roma/Urbe (it-Af, Italy
Distance from station: ONO 76km
Dati ricevuti: 29/07/2021 19:50
Non Attivo
Sereno
Sereno
 Vento da OSO
Vento: OSO 13 km/h
Temperatura: 31°C
Indice di Calore: 33°C
P.to Rugiada: 20°C
Umidità: 52%
Barometro: 1012 hPa
Summary: Sereno
Visibility: greater than 10 km
2021/07/29 17:50 LIRU 291750Z 25007KT CAVOK 31/20 Q1012
LIRE - Pratica Di Mare(, Italy
Distance from station: O 77km
Dati ricevuti: 30/07/2021 05:55
Sereno
Sereno
 Vento da ENE
Vento: ENE 9 km/h
Temperatura: 21°C
P.to Rugiada: 18°C
Umidità: 83%
Barometro: 1013 hPa
Summary: Sereno
Visibility: greater than 10 km
2021/07/30 03:55 LIRE 300355Z 07005KT CAVOK 21/18 Q1013 RMK SKC VIS MIN 9999 WIND THR13 06004KT WIND THR31 /////KT BLU
 
LIQN - Rieti, Italy
Distance from station: NNO 92km
Dati ricevuti: 29/07/2021 19:50
Non Attivo
Sereno
Sereno
 Vento da S
Vento: S 6 km/h
Temperatura: 31°C
P.to Rugiada: 14°C
Umidità: 35%
Barometro: 1014 hPa
Summary: Sereno
Visibility: greater than 10 km
2021/07/29 17:50 LIQN 291750Z 18003KT 130V220 CAVOK 31/14 Q1014
LIRK - Terminillo, Italy
Distance from station: NNO 93km
Dati ricevuti: 30/07/2021 05:55

 Vento da NO
Vento: NO 15 km/h
Temperatura: 15°C
P.to Rugiada: 7°C
Umidità: 59%
Barometro: 1024 hPa
2021/07/30 03:55 LIRK 300355Z AUTO 31008KT //// 15/07 Q1024
 
LIRF - Roma/Fiumicino, Italy
Distance from station: O 94km
Dati ricevuti: 30/07/2021 06:50
Parz. nuvoloso
Parz. nuvoloso
 Vento da NNE
Vento: NNE 4 km/h
Temperatura: 21°C
P.to Rugiada: 20°C
Umidità: 94%
Barometro: 1013 hPa
Clouds: Parz. nuvoloso
Visibility: 8 km
2021/07/30 04:50 LIRF 300450Z 03002KT 8000 NSC 21/20 Q1013 NOSIG
LIRM - Grazzanise (it-A, Italy
Distance from station: SE 94km
Dati ricevuti: 30/07/2021 05:55
Sereno
Sereno
 Vento da varies
Vento: varies 0 km/h
Temperatura: 21°C
P.to Rugiada: 18°C
Umidità: 83%
Barometro: 1013 hPa
Summary: Sereno
Visibility: greater than 10 km
2021/07/30 03:55 LIRM 300355Z /////KT CAVOK 21/18 Q1013
 
LIBP - Pescara, Italy
Distance from station: NE 108km
Dati ricevuti: 30/07/2021 06:50
Sereno
Sereno
 Vento da SO
Vento: SO 6 km/h
Temperatura: 20°C
P.to Rugiada: 14°C
Umidità: 69%
Barometro: 1012 hPa
Clouds: Sereno
Visibility: 10 km
2021/07/30 04:50 LIBP 300450Z AUTO 23003KT 9999 NCD 20/14 Q1012
LIRN - Napoli/Capodichino, Italy
Distance from station: SE 120km
Dati ricevuti: 30/07/2021 06:50
Sereno
Sereno
 Vento da E
Vento: E 6 km/h
Temperatura: 24°C
P.to Rugiada: 15°C
Umidità: 57%
Barometro: 1013 hPa
Summary: Sereno
Visibility: greater than 10 km
2021/07/30 04:50 LIRN 300450Z 08003KT CAVOK 24/15 Q1013 NOSIG
 
LIRV - Viterbo (it-Mil), Italy
Distance from station: NO 133km
Dati ricevuti: 29/07/2021 19:55
Non Attivo
Sereno
Sereno
 Vento da OSO
Vento: OSO 17 km/h
Temperatura: 28°C
Indice di Calore: 30°C
P.to Rugiada: 22°C
Umidità: 70%
Barometro: 1014 hPa
Summary: Sereno
Visibility: greater than 10 km
2021/07/29 17:55 LIRV 291755Z 25009KT CAVOK 28/22 Q1014
LIQC - Capri, Italy
Distance from station: SSE 145km
Dati ricevuti: 30/07/2021 05:55
Sereno
Sereno
 Vento da NE
Vento: NE 6 km/h
Temperatura: 25°C
P.to Rugiada: 21°C
Umidità: 79%
Barometro: 1013 hPa
Summary: Sereno
Visibility: greater than 10 km
2021/07/30 03:55 LIQC 300355Z 04003KT CAVOK 25/21 Q1013 RMK SKC QUK 1 QUL 0 VIS MAR 15 KM VIS MIN 9999
 
LIRT - Trevico, Italy
Distance from station: ESE 172km
Dati ricevuti: 30/07/2021 04:55
Non Attivo

 
2021/07/30 02:55 LIRT 300255Z ///08KT CAVOK 21/05 Q1019 RMK SKC MON INVIS VAL INVIS VIS MIN 9999
LIRZ - Perugia, Italy
Distance from station: NNO 172km
Dati ricevuti: 30/07/2021 06:50
Sereno
Sereno
 Vento da varies
Vento: varies 4 km/h
Temperatura: 20°C
P.to Rugiada: 17°C
Umidità: 83%
Barometro: 1014 hPa
Clouds: Sereno
Visibility: 10 km
2021/07/30 04:50 LIRZ 300450Z AUTO VRB02KT 9999 NCD 20/17 Q1014
 
LIRI - Pontecagnano (af, Italy
Distance from station: SE 177km
Dati ricevuti: 29/07/2021 18:50
Non Attivo
Sereno
Sereno
 Vento da O
Vento: O 9 km/h
Temperatura: 32°C
P.to Rugiada: 16°C
Umidità: 38%
Barometro: 1013 hPa
Summary: Sereno
Visibility: greater than 10 km
2021/07/29 16:50 LIRI 291650Z 26005KT CAVOK 32/16 Q1013
LIBF - Foggia/Gino Lisa, Italy
Distance from station: E 183km
Dati ricevuti: 29/07/2021 17:50
Non Attivo
Sereno
Sereno
 Vento da OSO
Vento: OSO 26 km/h
Temperatura: 39°C
P.to Rugiada: 7°C
Umidità: 14%
Barometro: 1011 hPa
Summary: Sereno
Visibility: greater than 10 km
2021/07/29 15:50 LIBF 291550Z 24014KT 210V270 CAVOK 39/07 Q1011
 
LIQO - Monte Argentario, Italy
Distance from station: ONO 195km
Dati ricevuti: 30/07/2021 05:55

 Vento da NNO
Vento: NNO 4 km/h
Temperatura: 23°C
P.to Rugiada: 17°C
Umidità: 69%
Barometro: 1016 hPa
2021/07/30 03:55 LIQO 300355Z AUTO 33002KT //// 23/17 Q1016
LIBA - Amendola (it-Afb, Italy
Distance from station: E 198km
Dati ricevuti: 30/07/2021 05:55
Sereno
Sereno
 Vento da O
Vento: O 11 km/h
Temperatura: 24°C
P.to Rugiada: 14°C
Umidità: 54%
Barometro: 1012 hPa
Summary: Sereno
Visibility: greater than 10 km
2021/07/30 03:55 LIBA 300355Z 27006KT CAVOK 24/14 Q1012 RMK SKC VIS MIN 9999 WIND THR11 27007KT WIND THR29 /////KT BLU
 
LIBN - Lecce (it-Afb), Italy
Dati ricevuti: 30/07/2021 05:55
Sereno
Sereno
 Vento da varies
Vento: varies 4 km/h
Temperatura: 22°C
P.to Rugiada: 18°C
Umidità: 78%
Barometro: 1011 hPa
Summary: Sereno
Visibility: greater than 10 km
2021/07/30 03:55 LIBN 300355Z VRB02KT CAVOK 22/18 Q1011 RMK SKC VIS MIN 9999 WIND THR14 VRB02KT WIND THR32 VRB02KT BLU
LIPY - Ancona-Falconara, Italy
Dati ricevuti: 30/07/2021 06:50
Sereno
Sereno
 Vento da SSE
Vento: SSE 4 km/h
Temperatura: 22°C
P.to Rugiada: 18°C
Umidità: 78%
Barometro: 1012 hPa
Clouds: Sereno
Visibility: 10 km
2021/07/30 04:50 LIPY 300450Z AUTO 16002KT 9999 NCD 22/18 Q1012
 
LICJ - Palermo-Punta Raisi, Italy
Dati ricevuti: 30/07/2021 06:50
Sereno
Sereno
 Vento da SSO
Vento: SSO 24 km/h
Temperatura: 34°C
P.to Rugiada: 8°C
Umidità: 20%
Barometro: 1012 hPa
Summary: Sereno
Visibility: greater than 10 km
2021/07/30 04:50 LICJ 300450Z 20013KT CAVOK 34/08 Q1012
LIEB - Capo Bellavista, Italy
Dati ricevuti: 30/07/2021 05:55
Sereno
Sereno
 Vento da calm
Vento: Calma
Temperatura: 23°C
P.to Rugiada: 20°C
Umidità: 83%
Barometro: 1012 hPa
Summary: Sereno
Visibility: greater than 10 km
2021/07/30 03:55 LIEB 300355Z 00000KT CAVOK 23/20 Q1012 RMK SKC QUK 1 QUL 0 VIS MAR 20 KM MON LIB VIS MIN 9999
 
LIEC - Capo Carbonara, Italy
Dati ricevuti: 29/07/2021 22:55
Non Attivo
Sereno
Sereno
 Vento da NE
Vento: NE 19 km/h
Temperatura: 27°C
Indice di Calore: 29°C
P.to Rugiada: 20°C
Umidità: 66%
Barometro: 1012 hPa
Summary: Sereno
Visibility: greater than 10 km
2021/07/29 20:55 LIEC 292055Z 05010KT CAVOK 27/20 Q1012 RMK SKC QUK / QUL / VIS MAR 16 KM VIS MIN 9999
LIED - Cagliari-Decimomannu(It-A, Italy
Dati ricevuti: 30/07/2021 05:55
Sereno
Sereno
 Vento da NE
Vento: NE 7 km/h
Temperatura: 23°C
P.to Rugiada: 21°C
Umidità: 89%
Barometro: 1011 hPa
Summary: Sereno
Visibility: greater than 10 km
2021/07/30 03:55 LIED 300355Z 04004KT CAVOK 23/21 Q1011 RMK SKC VIS MIN 9999 WIND THR35 04003KT WIND THR17 05002KT BLU
 
LIEE - Cagliari-Elmas(A, Italy
Dati ricevuti: 30/07/2021 06:50
Sereno
Sereno
 Vento da N
Vento: N 6 km/h
Temperatura: 22°C
P.to Rugiada: 21°C
Umidità: 94%
Barometro: 1012 hPa
Summary: Sereno
Visibility: greater than 10 km
2021/07/30 04:50 LIEE 300450Z 36003KT CAVOK 22/21 Q1012
LIEO - Olbia-Costa Smeralda, Italy
Dati ricevuti: 30/07/2021 06:50
Sereno
Sereno
 Vento da varies
Vento: varies 4 km/h
Temperatura: 19°C
P.to Rugiada: 17°C
Umidità: 88%
Barometro: 1013 hPa
Summary: Sereno
Visibility: greater than 10 km
2021/07/30 04:50 LIEO 300450Z VRB02KT CAVOK 19/17 Q1013
 
LIEA - Alghero, Italy
Dati ricevuti: 30/07/2021 06:50
Sereno
Sereno
 Vento da varies
Vento: varies 2 km/h
Temperatura: 20°C
P.to Rugiada: 17°C
Umidità: 83%
Barometro: 1013 hPa
Summary: Sereno
Visibility: greater than 10 km
2021/07/30 04:50 LIEA 300450Z VRB01KT CAVOK 20/17 Q1013
LICA - Catanzaro-Lamezia Terme, Italy
Dati ricevuti: 30/07/2021 06:50
Sereno
Sereno
 Vento da E
Vento: E 7 km/h
Temperatura: 20°C
P.to Rugiada: 16°C
Umidità: 78%
Barometro: 1013 hPa
Clouds: Sereno
Visibility: 10 km
2021/07/30 04:50 LICA 300450Z AUTO 08004KT 9999 NCD 20/16 Q1013
 
LIBQ - Cosenza-Monte Scuro, Italy
Dati ricevuti: 19/07/2021 22:55
Non Attivo
Nebbia
Nebbia
 Vento da ENE
Vento: ENE 9 km/h
Temperatura: 13°C
P.to Rugiada: 12°C
Umidità: 94%
Barometro: 1018 hPa
Summary: Nebbia
Visibility: 0 km
2021/07/19 20:55 LIBQ 192055Z 06005KT 0000 FG VV/// 13/12 Q1018 RMK MON INV VAL INV VIS MIN 0000
LICR - Reggio Calabria, Italy
Dati ricevuti: 30/07/2021 06:50
Sereno
Sereno
 Vento da varies
Vento: varies 4 km/h
Temperatura: 27°C
P.to Rugiada: 10°C
Umidità: 34%
Barometro: 1012 hPa
Clouds: Sereno
Visibility: 10 km
2021/07/30 04:50 LICR 300450Z AUTO VRB02KT 9999 NCD 27/10 Q1012
 
LIBV - Bari-Gioia Del Colle, Italy
Dati ricevuti: 30/07/2021 05:55
Sereno
Sereno
 Vento da SSE
Vento: SSE 4 km/h
Temperatura: 23°C
P.to Rugiada: 5°C
Umidità: 31%
Barometro: 1013 hPa
Summary: Sereno
Visibility: greater than 10 km
2021/07/30 03:55 LIBV 300355Z 15002KT CAVOK 23/05 Q1013 RMK SKC VIS MIN 9999 WIND THR32 21002KT WIND THR14 17004KT BLU
LIBD - Bari-Palese Macchie, Italy
Dati ricevuti: 30/07/2021 06:50
Sereno
Sereno
 Vento da SO
Vento: SO 7 km/h
Temperatura: 23°C
P.to Rugiada: 10°C
Umidità: 44%
Barometro: 1012 hPa
Summary: Sereno
Visibility: greater than 10 km
2021/07/30 04:50 LIBD 300450Z 23004KT CAVOK 23/10 Q1012
 
LIBR - Brindisi-Casale, Italy
Dati ricevuti: 30/07/2021 06:50
Sereno
Sereno
 Vento da ONO
Vento: ONO 9 km/h
Temperatura: 27°C
Indice di Calore: 27°C
P.to Rugiada: 13°C
Umidità: 42%
Barometro: 1011 hPa
Clouds: Sereno
Visibility: 10 km
2021/07/30 04:50 LIBR 300450Z AUTO 30005KT 9999 NCD 27/13 Q1011
LIRT - Trevico, Italy
Dati ricevuti: 30/07/2021 04:55
Non Attivo

 
2021/07/30 02:55 LIRT 300255Z ///08KT CAVOK 21/05 Q1019 RMK SKC MON INVIS VAL INVIS VIS MIN 9999
 
LICB - Comiso, Italy
Dati ricevuti: 30/07/2021 06:50
Sereno
Sereno
 Vento da ENE
Vento: ENE 9 km/h
Temperatura: 23°C
P.to Rugiada: 8°C
Umidità: 38%
Barometro: 1015 hPa
Clouds: Sereno
Visibility: 10 km
2021/07/30 04:50 LICB 300450Z AUTO 06005KT 9999 NCD 23/08 Q1015
LICL - Gela, Italy
Dati ricevuti: 29/07/2021 19:55
Non Attivo
Parz. nuvoloso
Parz. nuvoloso
 Vento da OSO
Vento: OSO 17 km/h
Temperatura: 29°C
Indice di Calore: 32°C
P.to Rugiada: 23°C
Umidità: 70%
Barometro: 1013 hPa
Clouds: Parz. nuvoloso
Visibility: 8 km
2021/07/29 17:55 LICL 291755Z 25009KT 200V280 8000 NSC 29/23 Q1013 RMK SKC QUK 1 QUL 0 VIS MAR 8 KM VIS MIN 8000
 
LIBN - Lecce (it-Afb), Italy
Dati ricevuti: 30/07/2021 05:55
Sereno
Sereno
 Vento da varies
Vento: varies 4 km/h
Temperatura: 22°C
P.to Rugiada: 18°C
Umidità: 78%
Barometro: 1011 hPa
Summary: Sereno
Visibility: greater than 10 km
2021/07/30 03:55 LIBN 300355Z VRB02KT CAVOK 22/18 Q1011 RMK SKC VIS MIN 9999 WIND THR14 VRB02KT WIND THR32 VRB02KT BLU
LICJ - Palermo-Punta Raisi, Italy
Dati ricevuti: 30/07/2021 06:50
Sereno
Sereno
 Vento da SSO
Vento: SSO 24 km/h
Temperatura: 34°C
P.to Rugiada: 8°C
Umidità: 20%
Barometro: 1012 hPa
Summary: Sereno
Visibility: greater than 10 km
2021/07/30 04:50 LICJ 300450Z 20013KT CAVOK 34/08 Q1012
 
LICZ - Catania-Sigonella (nas), Italy
Dati ricevuti: 30/07/2021 05:55
Sereno
Sereno
 Vento da varies
Vento: varies 0 km/h
Temperatura: 26°C
P.to Rugiada: 16°C
Umidità: 54%
Barometro: 1012 hPa
Summary: Sereno
Visibility: greater than 10 km
2021/07/30 03:55 LICZ 300355Z /////KT CAVOK 26/16 Q1012 RMK SKC VIS MIN 9999 WIND THR28 27007KT WIND THR10 28006KT A2989 BLU
LICC - Catania-Fontanarossa, Italy
Dati ricevuti: 30/07/2021 06:50
Sereno
Sereno
 Vento da OSO
Vento: OSO 20 km/h
Temperatura: 26°C
P.to Rugiada: 11°C
Umidità: 39%
Barometro: 1012 hPa
Summary: Sereno
Visibility: greater than 10 km
2021/07/30 04:50 LICC 300450Z 24011KT CAVOK 26/11 Q1012
 
LICT - Trapani-Birgi (a, Italy
Dati ricevuti: 30/07/2021 05:55
Sereno
Sereno
 Vento da SE
Vento: SE 15 km/h
Temperatura: 27°C
Indice di Calore: 28°C
P.to Rugiada: 19°C
Umidità: 62%
Barometro: 1012 hPa
Summary: Sereno
Visibility: greater than 10 km
2021/07/30 03:55 LICT 300355Z 14008KT CAVOK 27/19 Q1012
LICD - Agrigento-Lampedusa, Italy
Dati ricevuti: 30/07/2021 06:50
Sereno
Sereno
 Vento da SO
Vento: SO 15 km/h
Temperatura: 27°C
Indice di Calore: 31°C
P.to Rugiada: 24°C
Umidità: 84%
Barometro: 1013 hPa
Clouds: Sereno
Visibility: 10 km
2021/07/30 04:50 LICD 300450Z AUTO 23008KT 9999 NCD 27/24 Q1013
 
LICG - Pantelleria(It-A, Italy
Dati ricevuti: 29/07/2021 19:50
Non Attivo
Sereno
Sereno
 Vento da SSO
Vento: SSO 31 km/h
Temperatura: 32°C
P.to Rugiada: 10°C
Umidità: 26%
Barometro: 1014 hPa
Summary: Sereno
Visibility: greater than 10 km
2021/07/29 17:50 LICG 291750Z 20017KT CAVOK 32/10 Q1014
LIPX - Villafranca(Cv/M, Italy
Dati ricevuti: 30/07/2021 06:50
Sereno
Sereno
 Vento da varies
Vento: varies 4 km/h
Temperatura: 21°C
P.to Rugiada: 18°C
Umidità: 83%
Barometro: 1012 hPa
Summary: Sereno
Visibility: greater than 10 km
2021/07/30 04:50 LIPX 300450Z VRB02KT CAVOK 21/18 Q1012
 
LIPO - Brescia/Montichiari, Italy
Dati ricevuti: 30/07/2021 06:50
Sereno
Sereno
 Vento da N
Vento: N 11 km/h
Temperatura: 23°C
P.to Rugiada: 17°C
Umidità: 69%
Barometro: 1012 hPa
Clouds: Sereno
Visibility: 10 km
2021/07/30 04:50 LIPO 300450Z AUTO 01006KT 9999 NCD 23/17 Q1012
LIPL - Ghedi (it-Afb), Italy
Dati ricevuti: 30/07/2021 05:55
Parz. nuvoloso
Parz. nuvoloso
 Vento da NNE
Vento: NNE 6 km/h
Temperatura: 21°C
P.to Rugiada: 19°C
Umidità: 88%
Barometro: 1012 hPa
Clouds: Parz. nuvoloso
Visibility: 8 km
2021/07/30 03:55 LIPL 300355Z 02003KT 8000 NSC 21/19 Q1012 RMK SKC VIS MIN 8000 WIND THR31 03002KT WIND THR13 36003KT BLU
 
LIMP - Parma, Italy
Dati ricevuti: 29/07/2021 22:50
Non Attivo
Sereno
Sereno
 Vento da SSE
Vento: SSE 4 km/h
Temperatura: 26°C
P.to Rugiada: 21°C
Umidità: 74%
Barometro: 1012 hPa
Summary: Sereno
Visibility: greater than 10 km
2021/07/29 20:50 LIMP 292050Z 16002KT CAVOK 26/21 Q1012
LIMS - Piacenza (it-Afb, Italy
Dati ricevuti: 29/07/2021 19:55
Non Attivo
Few Clouds
Few Clouds
 Vento da NE
Vento: NE 7 km/h
Temperatura: 29°C
Indice di Calore: 32°C
P.to Rugiada: 23°C
Umidità: 70%
Barometro: 1011 hPa
Clouds: Few Clouds
Visibility: 10 km
Cloud details: Few Clouds 1829 m
2021/07/29 17:55 LIMS 291755Z 05004KT 9999 FEW060 29/23 Q1011
 
LIPF - Ferrara (aut), Italy
Dati ricevuti: 29/07/2021 19:55
Non Attivo
Few Clouds
Few Clouds
 Vento da varies
Vento: varies 0 km/h
Temperatura: 30°C
Indice di Calore: 31°C
P.to Rugiada: 17°C
Umidità: 46%
Barometro: 1011 hPa
Clouds: Few Clouds
Visibility: 10 km
Cloud details: Few Clouds 914 m
2021/07/29 17:55 LIPF 291755Z /////KT 9999 FEW030 30/17 Q1011
LIPE - Bologna/Borgo (a, Italy
Dati ricevuti: 30/07/2021 06:50
Sereno
Sereno
 Vento da S
Vento: S 11 km/h
Temperatura: 23°C
P.to Rugiada: 14°C
Umidità: 57%
Barometro: 1012 hPa
Summary: Sereno
Visibility: greater than 10 km
2021/07/30 04:50 LIPE 300450Z 19006KT CAVOK 23/14 Q1012
 
LIPU - Padova (civ/It-A, Italy
Dati ricevuti: 29/07/2021 08:00
Non Attivo
Sereno
Sereno
 Vento da varies
Vento: varies 4 km/h
Temperatura: 22°C
P.to Rugiada: 20°C
Umidità: 88%
Barometro: 1014 hPa
Summary: Sereno
Visibility: greater than 10 km
2021/07/29 06:00 LIPU 290600Z VRB02KT CAVOK 22/20 Q1014
LIME - Bergamo/Orio Ser, Italy
Dati ricevuti: 30/07/2021 06:50
Sereno
Sereno
 Vento da varies
Vento: varies 2 km/h
Temperatura: 21°C
P.to Rugiada: 17°C
Umidità: 78%
Barometro: 1013 hPa
Summary: Sereno
Visibility: greater than 10 km
2021/07/30 04:50 LIME 300450Z VRB01KT CAVOK 21/17 Q1013 NOSIG
 
LIMT - Cisa Pass, Italy
Dati ricevuti: 23/09/2019 13:55
Non Attivo
Nebbia
Nebbia
 Vento da calm
Vento: Calma
Temperatura: 10°C
P.to Rugiada: 10°C
Umidità: 100%
Barometro: 1014 hPa
Summary: Nebbia
Visibility: 0 km
2019/09/23 11:55 LIMT 231155Z 00000KT 0000 FG VV/// 10/10 Q1014 RMK MON INVIS VAL INVIS VIS MIN 0000
LIVC - Cimone Mountain, Italy
Dati ricevuti: 30/07/2021 05:55

 Vento da SO
Vento: SO 37 km/h
Temperatura: 14°C
P.to Rugiada: 8°C
Umidità: 67%
Barometro: 1024 hPa
2021/07/30 03:55 LIVC 300355Z AUTO 23020KT //// 14/08 Q1024
 
LIVP - Paganella Mounta, Italy
Dati ricevuti: 30/07/2021 05:55
Sereno
Sereno
 Vento da OSO
Vento: OSO 6 km/h
Temperatura: 11°C
P.to Rugiada: 7°C
Umidità: 77%
Barometro: 1022 hPa
Summary: Sereno
Visibility: greater than 10 km
2021/07/30 03:55 LIVP 300355Z 24003KT CAVOK 11/07 Q1022 RMK SKC MON LIB VAL FOSCHIA SKC SUP VIS MIN 9999
LIML - Milano/Linate, Italy
Dati ricevuti: 30/07/2021 06:50
Sereno
Sereno
 Vento da ENE
Vento: ENE 4 km/h
Temperatura: 21°C
P.to Rugiada: 19°C
Umidità: 88%
Barometro: 1012 hPa
Clouds: Sereno
Visibility: 10 km
2021/07/30 04:50 LIML 300450Z AUTO 06002KT 9999 NCD 21/19 Q1012
 
LIPS - Istrana (it-Afb), Italy
Dati ricevuti: 30/07/2021 05:55
Sereno
Sereno
 Vento da NE
Vento: NE 6 km/h
Temperatura: 23°C
P.to Rugiada: 21°C
Umidità: 89%
Barometro: 1012 hPa
Summary: Sereno
Visibility: greater than 10 km
2021/07/30 03:55 LIPS 300355Z 05003KT CAVOK 23/21 Q1012 RMK SKC VIS MIN 9999 WIND THR26 02002KT WIND THR08 06003KT BLK BLU
LIPH - Treviso(Civ/It-A, Italy
Dati ricevuti: 30/07/2021 06:50
Sereno
Sereno
 Vento da NE
Vento: NE 7 km/h
Temperatura: 23°C
P.to Rugiada: 20°C
Umidità: 83%
Barometro: 1012 hPa
Clouds: Sereno
Visibility: 10 km
2021/07/30 04:50 LIPH 300450Z AUTO 05004KT 9999 NCD 23/20 Q1012
 
LIPZ - Venezia/Tessera, Italy
Dati ricevuti: 30/07/2021 06:50
Sereno
Sereno
 Vento da NNE
Vento: NNE 9 km/h
Temperatura: 22°C
P.to Rugiada: 20°C
Umidità: 88%
Barometro: 1011 hPa
Summary: Sereno
Visibility: greater than 10 km
2021/07/30 04:50 LIPZ 300450Z 02005KT CAVOK 22/20 Q1011 NOSIG
LIQW - Sarzana/Luni, Italy
Dati ricevuti: 29/07/2021 13:55
Non Attivo
Sereno
Sereno
 Vento da SE
Vento: SE 13 km/h
Temperatura: 28°C
Indice di Calore: 28°C
P.to Rugiada: 17°C
Umidità: 51%
Barometro: 1013 hPa
Summary: Sereno
Visibility: greater than 10 km
2021/07/29 11:55 LIQW 291155Z 13007KT CAVOK 28/17 Q1013
 
LIVR - Rolle Pass, Italy
Dati ricevuti: 30/07/2021 05:55
Sereno
Sereno
 Vento da N
Vento: N 6 km/h
Temperatura: 12°C
P.to Rugiada: 10°C
Umidità: 88%
Barometro: 1023 hPa
Summary: Sereno
Visibility: greater than 10 km
2021/07/30 03:55 LIVR 300355Z 35003KT CAVOK 12/10 Q1023 RMK SKC MON LIB VIS MIN 9999
LIPK - Forli (civ/It-Af, Italy
Dati ricevuti: 30/07/2021 06:50
Sereno
Sereno
 Vento da calm
Vento: Calma
Temperatura: 18°C
P.to Rugiada: 13°C
Umidità: 73%
Barometro: 1011 hPa
Summary: Sereno
Visibility: greater than 10 km
2021/07/30 04:50 LIPK 300450Z 00000KT CAVOK 18/13 Q1011
 
LIMV - Giovi Pass, Italy
Dati ricevuti: 28/07/2021 13:05
Non Attivo
Forte temporale, Pioggia, Nebbia
Forte temporale, Pioggia, Nebbia
 Vento da varies
Vento: varies 0 km/h
Temperatura: 21°C
P.to Rugiada: 21°C
Umidità: 100%
Barometro: 1016 hPa
Summary: Forte temporale, Pioggia, Nebbia
Visibility: 1 km
2021/07/28 11:05 LIMV 281105Z /////KT 0600 +TSRA FG VV/// 21/21 Q1016 RMK MON INVIS VAL INVIS VIS MIN 0600
LIPB - Bolzano(Civ/It-A, Italy
Dati ricevuti: 30/07/2021 06:50
Sereno
Sereno
 Vento da calm
Vento: Calma
Temperatura: 18°C
P.to Rugiada: 17°C
Umidità: 94%
Barometro: 1014 hPa
Summary: Sereno
Visibility: greater than 10 km
2021/07/30 04:50 LIPB 300450Z 00000KT CAVOK 18/17 Q1014
 
LIVD - Bolzano-Dobbiaco, Italy
Dati ricevuti: 29/07/2021 19:55
Non Attivo

 
2021/07/29 17:55 LIVD 291755Z ///02KT 9999 FEW030 21/12 Q1018 RMK FEW VIS MIN 9999
LIVE - Bolzano-Passo Resia, Italy
Dati ricevuti: 30/07/2021 05:55
Parz. nuvoloso
Parz. nuvoloso
 Vento da calm
Vento: Calma
Temperatura: 13°C
P.to Rugiada: 12°C
Umidità: 94%
Barometro: 1019 hPa
Clouds: Parz. nuvoloso
Visibility: 10 km
Cloud details: Parz. nuvoloso 762 m
2021/07/30 03:55 LIVE 300355Z 00000KT 9999 SCT025 13/12 Q1019 RMK SCT VIS MIN 9999
 
LIMH - Aosta-Pian Rosa (mtn T, Italy
Dati ricevuti: 30/07/2021 05:55
Parz. nuvoloso
Parz. nuvoloso
 Vento da SO
Vento: SO 28 km/h
Temperatura: 3°C
Temperatura del Vento: -3°C
P.to Rugiada: 0°C
Umidità: 81%
Barometro: 1029 hPa
Clouds: Parz. nuvoloso
Visibility: 10 km
Cloud details: Parz. nuvoloso 305 m
2021/07/30 03:55 LIMH 300355Z 22015KT 9999 SCT010 03/00 Q1029 RMK SCT MON CLD SCT VAL FOSCHIA VIS MIN 9999
LIMZ - Cuneo/Levaldigi, Italy
Dati ricevuti: 30/07/2021 06:50
Sereno
Sereno
 Vento da SO
Vento: SO 4 km/h
Temperatura: 19°C
P.to Rugiada: 17°C
Umidità: 88%
Barometro: 1013 hPa
Clouds: Sereno
Visibility: 10 km
2021/07/30 04:50 LIMZ 300450Z AUTO 22002KT 9999 NCD 19/17 Q1013
 
LIMK - Torino-Bric Della Croce, Italy
Dati ricevuti: 28/07/2021 13:55
Non Attivo
Nebbia
Nebbia
 Vento da calm
Vento: Calma
Temperatura: 21°C
P.to Rugiada: 21°C
Umidità: 100%
Barometro: 1016 hPa
Summary: Nebbia
Visibility: 0 km
2021/07/28 11:55 LIMK 281155Z 00000KT 0300 FG VV/// 21/21 Q1016 RMK VAL INVIS VIS MIN 0300
LIMN - Novara-Cameri (it-Afb), Italy
Dati ricevuti: 29/07/2021 19:55
Non Attivo
Sereno
Sereno
 Vento da OSO
Vento: OSO 7 km/h
Temperatura: 29°C
Indice di Calore: 29°C
P.to Rugiada: 18°C
Umidità: 51%
Barometro: 1012 hPa
Summary: Sereno
Visibility: greater than 10 km
2021/07/29 17:55 LIMN 291755Z 24004KT CAVOK 29/18 Q1012 RMK SKC VIS MIN 9999 BLU
 
LIPA - Pordenone-Aviano (it/Us-Af, Italy
Dati ricevuti: 30/07/2021 05:55
Sereno
Sereno
 Vento da NNE
Vento: NNE 9 km/h
Temperatura: 21°C
P.to Rugiada: 20°C
Umidità: 94%
Barometro: 1012 hPa
Summary: Sereno
Visibility: greater than 10 km
2021/07/30 03:55 LIPA 300355Z 02005KT CAVOK 21/20 Q1012 RMK FEW FEW200 VIS MIN 9999 WIND THR05 /////KT WIND THR23 /////KT A2989 BLU
LIPI - Udine-Rivolto (it-Afb), Italy
Dati ricevuti: 30/07/2021 05:55
Parz. nuvoloso
Parz. nuvoloso
 Vento da NNO
Vento: NNO 6 km/h
Temperatura: 21°C
P.to Rugiada: 18°C
Umidità: 83%
Barometro: 1012 hPa
Clouds: Parz. nuvoloso
Visibility: 10 km
Cloud details: Parz. nuvoloso 1524 m
2021/07/30 03:55 LIPI 300355Z 34003KT 9999 SCT050 21/18 Q1012 RMK SCT VIS MIN 9999 WIND THR06 02002KT WIND THR24 01003KT BLU
 
LIVO - Udine-Tarvisio, Italy
Dati ricevuti: 29/07/2021 19:55
Non Attivo
Sereno
Sereno
 Vento da SO
Vento: SO 6 km/h
Temperatura: 23°C
P.to Rugiada: 15°C
Umidità: 61%
Barometro: 1014 hPa
Summary: Sereno
Visibility: greater than 10 km
2021/07/29 17:55 LIVO 291755Z 22003KT CAVOK 23/15 Q1014 RMK SKC VIS MIN 9999
LIPQ - Trieste-Ronchi Dei Legionari, Italy
Dati ricevuti: 30/07/2021 06:50
Sereno
Sereno
 Vento da varies
Vento: varies 2 km/h
Temperatura: 21°C
P.to Rugiada: 20°C
Umidità: 94%
Barometro: 1012 hPa
Clouds: Sereno
Visibility: 10 km
2021/07/30 04:50 LIPQ 300450Z AUTO VRB01KT 9999 NCD 21/20 Q1012
 
LIVT - Trieste, Italy
Dati ricevuti: 29/07/2021 19:55
Non Attivo
Sereno
Sereno
 Vento da calm
Vento: Calma
Temperatura: 28°C
Indice di Calore: 32°C
P.to Rugiada: 25°C
Umidità: 84%
Barometro: 1011 hPa
Summary: Sereno
Visibility: greater than 10 km
2021/07/29 17:55 LIVT 291755Z 00000KT CAVOK 28/25 Q1011 RMK SKC QUK 0 QUL 0 VIS MAR 20 KM VIS MIN 9999
LIRQ - Firenze/Peretola, Italy
Dati ricevuti: 30/07/2021 06:50
Sereno
Sereno
 Vento da varies
Vento: varies 2 km/h
Temperatura: 20°C
P.to Rugiada: 16°C
Umidità: 78%
Barometro: 1013 hPa
Summary: Sereno
Visibility: greater than 10 km
2021/07/30 04:50 LIRQ 300450Z VRB01KT CAVOK 20/16 Q1013
 
LIPK - Forli (civ/It-Af, Italy
Dati ricevuti: 30/07/2021 06:50
Sereno
Sereno
 Vento da calm
Vento: Calma
Temperatura: 18°C
P.to Rugiada: 13°C
Umidità: 73%
Barometro: 1011 hPa
Summary: Sereno
Visibility: greater than 10 km
2021/07/30 04:50 LIPK 300450Z 00000KT CAVOK 18/13 Q1011
LIRS - Grosseto (it-Afb, Italy
Dati ricevuti: 30/07/2021 05:55
Molto nuvoloso
Molto nuvoloso
 Vento da NNE
Vento: NNE 6 km/h
Temperatura: 22°C
P.to Rugiada: 19°C
Umidità: 83%
Barometro: 1013 hPa
Clouds: Molto nuvoloso
Visibility: 9 km
Cloud details: Molto nuvoloso 183 m
2021/07/30 03:55 LIRS 300355Z 02003KT 9000 BKN006 22/19 Q1013
 
LIRP - Pisa (civ/It-Afb, Italy
Dati ricevuti: 30/07/2021 06:45
Sereno
Sereno
 Vento da ESE
Vento: ESE 7 km/h
Temperatura: 20°C
P.to Rugiada: 18°C
Umidità: 88%
Barometro: 1013 hPa
Summary: Sereno
Visibility: greater than 10 km
2021/07/30 04:45 LIRP 300445Z 12004KT CAVOK 20/18 Q1013 NOSIG
LIVF - Frontone, Italy
Dati ricevuti: 21/07/2021 15:26
Non Attivo
Thunderstorm rain, Parz. nuvoloso
Thunderstorm rain, Parz. nuvoloso
 Vento da NO
Vento: NO 22 km/h
Temperatura: 23°C
P.to Rugiada: 16°C
Umidità: 65%
Barometro: 1019 hPa
Summary: Thunderstorm Rain
Clouds: Parz. nuvoloso
Visibility: 3 km
Cloud details: Parz. nuvoloso 762 m
Parz. nuvoloso 914 m
2021/07/21 13:26 LIVF 211326Z 31012KT 3000 TSRA SCT025CB SCT030 23/16 Q1019 RMK BKN MON INVIS VAL INVIS VIS MIN 3000
 
LIPC - Cervia (it-Afb), Italy
Dati ricevuti: 30/07/2021 05:55
Sereno
Sereno
 Vento da SO
Vento: SO 6 km/h
Temperatura: 18°C
P.to Rugiada: 16°C
Umidità: 88%
Barometro: 1011 hPa
Summary: Sereno
Visibility: greater than 10 km
2021/07/30 03:55 LIPC 300355Z 22003KT CAVOK 18/16 Q1011
LIPR - Rimini (civ/It-A, Italy
Dati ricevuti: 30/07/2021 06:50
Sereno
Sereno
 Vento da varies
Vento: varies 4 km/h
Temperatura: 20°C
P.to Rugiada: 16°C
Umidità: 78%
Barometro: 1012 hPa
Clouds: Sereno
Visibility: 10 km
2021/07/30 04:50 LIPR 300450Z AUTO VRB02KT 9999 // NCD 20/16 Q1012
 
LIRX - Monte Calamita, Italy
Dati ricevuti: 29/07/2021 19:55
Non Attivo
Sereno
Sereno
 Vento da calm
Vento: Calma
Temperatura: 29°C
Indice di Calore: 29°C
P.to Rugiada: 16°C
Umidità: 45%
Barometro: 1013 hPa
Summary: Sereno
Visibility: greater than 10 km
2021/07/29 17:55 LIRX 291755Z 00000KT CAVOK 29/16 Q1013 RMK SKC VIS MIN 9999 VIS MAR 15 KM
LIVM - Punta Marina/Rav, Italy
Dati ricevuti: 30/07/2021 05:55

 Vento da varies
Vento: varies 4 km/h
Temperatura: 22°C
P.to Rugiada: 20°C
Umidità: 88%
Barometro: 1011 hPa
2021/07/30 03:55 LIVM 300355Z AUTO VRB02KT //// 22/20 Q1011